sensor_id;sensor_type;location;lat;lon;timestamp;P1;durP1;ratioP1;P2;durP2;ratioP2
19260;SDS011;9764;48.114;11.670;2023-06-22T00:00:40;5.95;;;4.35;;
19260;SDS011;9764;48.114;11.670;2023-06-22T00:03:09;4.95;;;4.38;;
19260;SDS011;9764;48.114;11.670;2023-06-22T00:05:37;5.93;;;4.25;;
19260;SDS011;9764;48.114;11.670;2023-06-22T00:08:07;5.25;;;4.32;;
19260;SDS011;9764;48.114;11.670;2023-06-22T00:10:35;6.65;;;4.63;;
19260;SDS011;9764;48.114;11.670;2023-06-22T00:13:04;5.95;;;4.32;;
19260;SDS011;9764;48.114;11.670;2023-06-22T00:15:32;5.97;;;4.50;;
19260;SDS011;9764;48.114;11.670;2023-06-22T00:18:01;4.57;;;4.10;;
19260;SDS011;9764;48.114;11.670;2023-06-22T00:20:29;5.97;;;4.43;;
19260;SDS011;9764;48.114;11.670;2023-06-22T00:22:59;4.63;;;4.18;;
19260;SDS011;9764;48.114;11.670;2023-06-22T00:25:29;4.85;;;4.10;;
19260;SDS011;9764;48.114;11.670;2023-06-22T00:27:57;8.43;;;4.68;;
19260;SDS011;9764;48.114;11.670;2023-06-22T00:30:26;5.13;;;4.18;;
19260;SDS011;9764;48.114;11.670;2023-06-22T00:32:56;6.15;;;4.85;;
19260;SDS011;9764;48.114;11.670;2023-06-22T00:35:26;5.15;;;4.00;;
19260;SDS011;9764;48.114;11.670;2023-06-22T00:37:56;6.13;;;4.28;;
19260;SDS011;9764;48.114;11.670;2023-06-22T00:40:29;5.22;;;4.22;;
19260;SDS011;9764;48.114;11.670;2023-06-22T00:42:59;7.05;;;4.38;;
19260;SDS011;9764;48.114;11.670;2023-06-22T00:45:28;5.00;;;4.13;;
19260;SDS011;9764;48.114;11.670;2023-06-22T00:47:57;4.88;;;4.40;;
19260;SDS011;9764;48.114;11.670;2023-06-22T00:50:27;5.22;;;4.22;;
19260;SDS011;9764;48.114;11.670;2023-06-22T00:53:00;5.47;;;4.32;;
19260;SDS011;9764;48.114;11.670;2023-06-22T00:55:37;7.07;;;4.18;;
19260;SDS011;9764;48.114;11.670;2023-06-22T00:58:07;4.68;;;4.10;;
19260;SDS011;9764;48.114;11.670;2023-06-22T01:00:37;4.40;;;4.05;;
19260;SDS011;9764;48.114;11.670;2023-06-22T01:03:07;4.68;;;4.20;;
19260;SDS011;9764;48.114;11.670;2023-06-22T01:05:37;5.13;;;4.50;;
19260;SDS011;9764;48.114;11.670;2023-06-22T01:08:13;5.13;;;4.15;;
19260;SDS011;9764;48.114;11.670;2023-06-22T01:10:51;6.35;;;4.55;;
19260;SDS011;9764;48.114;11.670;2023-06-22T01:13:25;5.18;;;4.28;;
19260;SDS011;9764;48.114;11.670;2023-06-22T01:16:02;4.78;;;4.30;;
19260;SDS011;9764;48.114;11.670;2023-06-22T01:18:33;6.88;;;4.20;;
19260;SDS011;9764;48.114;11.670;2023-06-22T01:21:04;6.15;;;4.32;;
19260;SDS011;9764;48.114;11.670;2023-06-22T01:23:40;5.13;;;4.63;;
19260;SDS011;9764;48.114;11.670;2023-06-22T01:26:37;5.68;;;4.43;;
19260;SDS011;9764;48.114;11.670;2023-06-22T01:29:11;8.85;;;4.85;;
19260;SDS011;9764;48.114;11.670;2023-06-22T01:31:41;5.75;;;4.47;;
19260;SDS011;9764;48.114;11.670;2023-06-22T01:34:12;5.50;;;5.00;;
19260;SDS011;9764;48.114;11.670;2023-06-22T01:36:41;6.18;;;4.63;;
19260;SDS011;9764;48.114;11.670;2023-06-22T01:39:11;5.55;;;4.63;;
19260;SDS011;9764;48.114;11.670;2023-06-22T01:41:40;5.13;;;4.45;;
19260;SDS011;9764;48.114;11.670;2023-06-22T01:44:11;5.72;;;4.70;;
19260;SDS011;9764;48.114;11.670;2023-06-22T01:46:41;5.32;;;4.35;;
19260;SDS011;9764;48.114;11.670;2023-06-22T01:49:09;5.28;;;4.68;;
19260;SDS011;9764;48.114;11.670;2023-06-22T01:51:38;6.78;;;4.22;;
19260;SDS011;9764;48.114;11.670;2023-06-22T01:54:06;6.03;;;4.60;;
19260;SDS011;9764;48.114;11.670;2023-06-22T01:56:35;5.35;;;4.35;;
19260;SDS011;9764;48.114;11.670;2023-06-22T01:59:05;4.43;;;4.03;;
19260;SDS011;9764;48.114;11.670;2023-06-22T02:01:42;6.07;;;4.65;;
19260;SDS011;9764;48.114;11.670;2023-06-22T02:04:13;5.85;;;4.40;;
19260;SDS011;9764;48.114;11.670;2023-06-22T02:06:47;6.00;;;4.57;;
19260;SDS011;9764;48.114;11.670;2023-06-22T02:09:19;4.78;;;4.32;;
19260;SDS011;9764;48.114;11.670;2023-06-22T02:11:50;5.38;;;4.35;;
19260;SDS011;9764;48.114;11.670;2023-06-22T02:14:21;5.72;;;4.60;;
19260;SDS011;9764;48.114;11.670;2023-06-22T02:16:52;5.63;;;4.25;;
19260;SDS011;9764;48.114;11.670;2023-06-22T02:19:22;5.50;;;4.18;;
19260;SDS011;9764;48.114;11.670;2023-06-22T02:21:52;4.75;;;4.32;;
19260;SDS011;9764;48.114;11.670;2023-06-22T02:24:20;5.85;;;4.38;;
19260;SDS011;9764;48.114;11.670;2023-06-22T02:26:49;5.07;;;4.13;;
19260;SDS011;9764;48.114;11.670;2023-06-22T02:29:18;6.38;;;4.65;;
19260;SDS011;9764;48.114;11.670;2023-06-22T02:31:46;5.78;;;4.13;;
19260;SDS011;9764;48.114;11.670;2023-06-22T02:34:16;5.30;;;4.13;;
19260;SDS011;9764;48.114;11.670;2023-06-22T02:36:45;5.82;;;4.43;;
19260;SDS011;9764;48.114;11.670;2023-06-22T02:39:22;4.57;;;4.18;;
19260;SDS011;9764;48.114;11.670;2023-06-22T02:41:53;6.10;;;4.53;;
19260;SDS011;9764;48.114;11.670;2023-06-22T02:44:22;5.28;;;4.22;;
19260;SDS011;9764;48.114;11.670;2023-06-22T02:46:50;6.10;;;4.53;;
19260;SDS011;9764;48.114;11.670;2023-06-22T02:49:21;8.68;;;4.22;;
19260;SDS011;9764;48.114;11.670;2023-06-22T02:51:50;5.60;;;4.63;;
19260;SDS011;9764;48.114;11.670;2023-06-22T02:54:20;5.82;;;4.70;;
19260;SDS011;9764;48.114;11.670;2023-06-22T02:56:51;7.90;;;4.78;;
19260;SDS011;9764;48.114;11.670;2023-06-22T02:59:20;6.25;;;4.80;;
19260;SDS011;9764;48.114;11.670;2023-06-22T03:01:54;6.68;;;4.95;;
19260;SDS011;9764;48.114;11.670;2023-06-22T03:04:30;7.43;;;5.43;;
19260;SDS011;9764;48.114;11.670;2023-06-22T03:06:58;7.72;;;4.63;;
19260;SDS011;9764;48.114;11.670;2023-06-22T03:09:29;5.40;;;3.83;;
19260;SDS011;9764;48.114;11.670;2023-06-22T03:11:58;5.45;;;4.45;;
19260;SDS011;9764;48.114;11.670;2023-06-22T03:14:33;7.70;;;4.68;;
19260;SDS011;9764;48.114;11.670;2023-06-22T03:17:03;6.57;;;4.55;;
19260;SDS011;9764;48.114;11.670;2023-06-22T03:19:34;5.30;;;4.22;;
19260;SDS011;9764;48.114;11.670;2023-06-22T03:22:02;6.45;;;4.80;;
19260;SDS011;9764;48.114;11.670;2023-06-22T03:24:31;6.57;;;4.47;;
19260;SDS011;9764;48.114;11.670;2023-06-22T03:27:01;6.22;;;4.60;;
19260;SDS011;9764;48.114;11.670;2023-06-22T03:29:33;5.05;;;4.43;;
19260;SDS011;9764;48.114;11.670;2023-06-22T03:32:02;5.63;;;4.80;;
19260;SDS011;9764;48.114;11.670;2023-06-22T03:34:31;4.72;;;4.20;;
19260;SDS011;9764;48.114;11.670;2023-06-22T03:37:03;6.82;;;4.47;;
19260;SDS011;9764;48.114;11.670;2023-06-22T03:39:32;6.40;;;4.80;;
19260;SDS011;9764;48.114;11.670;2023-06-22T03:42:00;4.95;;;4.43;;
19260;SDS011;9764;48.114;11.670;2023-06-22T03:44:29;5.43;;;4.38;;
19260;SDS011;9764;48.114;11.670;2023-06-22T03:46:57;7.35;;;4.30;;
19260;SDS011;9764;48.114;11.670;2023-06-22T03:49:26;4.70;;;3.92;;
19260;SDS011;9764;48.114;11.670;2023-06-22T03:51:55;6.65;;;4.65;;
19260;SDS011;9764;48.114;11.670;2023-06-22T03:54:24;5.50;;;4.35;;
19260;SDS011;9764;48.114;11.670;2023-06-22T03:56:52;5.10;;;4.57;;
19260;SDS011;9764;48.114;11.670;2023-06-22T03:59:20;7.28;;;4.00;;
19260;SDS011;9764;48.114;11.670;2023-06-22T04:01:48;6.13;;;4.57;;
19260;SDS011;9764;48.114;11.670;2023-06-22T04:04:17;5.68;;;4.13;;
19260;SDS011;9764;48.114;11.670;2023-06-22T04:06:46;6.47;;;4.22;;
19260;SDS011;9764;48.114;11.670;2023-06-22T04:09:15;5.40;;;4.57;;
19260;SDS011;9764;48.114;11.670;2023-06-22T04:11:44;5.68;;;4.50;;
19260;SDS011;9764;48.114;11.670;2023-06-22T04:14:12;5.38;;;4.53;;
19260;SDS011;9764;48.114;11.670;2023-06-22T04:16:41;6.10;;;4.40;;
19260;SDS011;9764;48.114;11.670;2023-06-22T04:19:09;7.22;;;4.53;;
19260;SDS011;9764;48.114;11.670;2023-06-22T04:21:42;5.47;;;4.10;;
19260;SDS011;9764;48.114;11.670;2023-06-22T04:24:11;5.00;;;4.40;;
19260;SDS011;9764;48.114;11.670;2023-06-22T04:26:41;6.88;;;4.72;;
19260;SDS011;9764;48.114;11.670;2023-06-22T04:29:12;6.65;;;4.28;;
19260;SDS011;9764;48.114;11.670;2023-06-22T04:31:40;10.68;;;5.45;;
19260;SDS011;9764;48.114;11.670;2023-06-22T04:34:09;9.73;;;5.78;;
19260;SDS011;9764;48.114;11.670;2023-06-22T04:36:38;10.23;;;5.93;;
19260;SDS011;9764;48.114;11.670;2023-06-22T04:39:09;7.78;;;5.68;;
19260;SDS011;9764;48.114;11.670;2023-06-22T04:41:38;7.90;;;5.68;;
19260;SDS011;9764;48.114;11.670;2023-06-22T04:44:11;8.23;;;5.85;;
19260;SDS011;9764;48.114;11.670;2023-06-22T04:46:40;6.57;;;5.70;;
19260;SDS011;9764;48.114;11.670;2023-06-22T04:49:09;8.07;;;5.93;;
19260;SDS011;9764;48.114;11.670;2023-06-22T04:51:39;8.27;;;6.03;;
19260;SDS011;9764;48.114;11.670;2023-06-22T04:54:08;6.78;;;5.82;;
19260;SDS011;9764;48.114;11.670;2023-06-22T04:56:37;8.48;;;5.75;;
19260;SDS011;9764;48.114;11.670;2023-06-22T04:59:07;7.90;;;6.38;;
19260;SDS011;9764;48.114;11.670;2023-06-22T05:01:41;6.50;;;5.78;;
19260;SDS011;9764;48.114;11.670;2023-06-22T05:04:09;9.77;;;6.00;;
19260;SDS011;9764;48.114;11.670;2023-06-22T05:06:38;11.07;;;6.43;;
19260;SDS011;9764;48.114;11.670;2023-06-22T05:09:07;10.32;;;6.32;;
19260;SDS011;9764;48.114;11.670;2023-06-22T05:11:35;10.98;;;7.22;;
19260;SDS011;9764;48.114;11.670;2023-06-22T05:14:03;8.80;;;6.82;;
19260;SDS011;9764;48.114;11.670;2023-06-22T05:16:32;7.55;;;6.72;;
19260;SDS011;9764;48.114;11.670;2023-06-22T05:19:02;8.65;;;6.20;;
19260;SDS011;9764;48.114;11.670;2023-06-22T05:21:30;7.85;;;6.88;;
19260;SDS011;9764;48.114;11.670;2023-06-22T05:23:59;10.82;;;6.88;;
19260;SDS011;9764;48.114;11.670;2023-06-22T05:26:29;8.73;;;6.78;;
19260;SDS011;9764;48.114;11.670;2023-06-22T05:28:58;11.95;;;6.25;;
19260;SDS011;9764;48.114;11.670;2023-06-22T05:31:46;13.93;;;6.38;;
19260;SDS011;9764;48.114;11.670;2023-06-22T05:34:16;9.88;;;6.20;;
19260;SDS011;9764;48.114;11.670;2023-06-22T05:36:44;9.77;;;7.68;;
19260;SDS011;9764;48.114;11.670;2023-06-22T05:39:12;16.15;;;6.90;;
19260;SDS011;9764;48.114;11.670;2023-06-22T05:41:41;8.45;;;6.88;;
19260;SDS011;9764;48.114;11.670;2023-06-22T05:44:10;9.68;;;6.85;;
19260;SDS011;9764;48.114;11.670;2023-06-22T05:46:40;10.05;;;6.20;;
19260;SDS011;9764;48.114;11.670;2023-06-22T05:49:11;6.05;;;5.45;;
19260;SDS011;9764;48.114;11.670;2023-06-22T05:51:41;11.45;;;6.55;;
19260;SDS011;9764;48.114;11.670;2023-06-22T05:54:10;8.73;;;6.15;;
19260;SDS011;9764;48.114;11.670;2023-06-22T05:56:40;10.60;;;6.13;;
19260;SDS011;9764;48.114;11.670;2023-06-22T05:59:08;7.38;;;5.97;;
19260;SDS011;9764;48.114;11.670;2023-06-22T06:01:37;7.07;;;5.82;;
19260;SDS011;9764;48.114;11.670;2023-06-22T06:04:06;6.95;;;6.20;;
19260;SDS011;9764;48.114;11.670;2023-06-22T06:06:35;6.20;;;5.22;;
19260;SDS011;9764;48.114;11.670;2023-06-22T06:09:05;7.03;;;6.25;;
19260;SDS011;9764;48.114;11.670;2023-06-22T06:11:34;6.95;;;5.30;;
19260;SDS011;9764;48.114;11.670;2023-06-22T06:14:02;9.60;;;6.00;;
19260;SDS011;9764;48.114;11.670;2023-06-22T06:16:31;8.75;;;5.68;;
19260;SDS011;9764;48.114;11.670;2023-06-22T06:18:59;8.48;;;6.57;;
19260;SDS011;9764;48.114;11.670;2023-06-22T06:21:28;8.65;;;6.30;;
19260;SDS011;9764;48.114;11.670;2023-06-22T06:23:57;8.60;;;6.22;;
19260;SDS011;9764;48.114;11.670;2023-06-22T06:26:27;10.50;;;6.22;;
19260;SDS011;9764;48.114;11.670;2023-06-22T06:28:56;9.32;;;6.05;;
19260;SDS011;9764;48.114;11.670;2023-06-22T06:31:25;6.30;;;5.40;;
19260;SDS011;9764;48.114;11.670;2023-06-22T06:33:55;11.52;;;6.35;;
19260;SDS011;9764;48.114;11.670;2023-06-22T06:36:23;9.23;;;5.60;;
19260;SDS011;9764;48.114;11.670;2023-06-22T06:38:52;7.18;;;5.97;;
19260;SDS011;9764;48.114;11.670;2023-06-22T06:41:20;8.68;;;6.20;;
19260;SDS011;9764;48.114;11.670;2023-06-22T06:43:50;12.20;;;5.95;;
19260;SDS011;9764;48.114;11.670;2023-06-22T06:46:18;8.60;;;5.63;;
19260;SDS011;9764;48.114;11.670;2023-06-22T06:48:47;8.43;;;5.68;;
19260;SDS011;9764;48.114;11.670;2023-06-22T06:51:15;11.48;;;5.38;;
19260;SDS011;9764;48.114;11.670;2023-06-22T06:53:43;8.55;;;5.25;;
19260;SDS011;9764;48.114;11.670;2023-06-22T06:56:12;6.57;;;4.88;;
19260;SDS011;9764;48.114;11.670;2023-06-22T06:58:40;18.55;;;9.75;;
19260;SDS011;9764;48.114;11.670;2023-06-22T07:01:13;8.75;;;5.70;;
19260;SDS011;9764;48.114;11.670;2023-06-22T07:03:42;8.73;;;5.03;;
19260;SDS011;9764;48.114;11.670;2023-06-22T07:06:10;7.95;;;4.40;;
19260;SDS011;9764;48.114;11.670;2023-06-22T07:08:38;6.53;;;4.93;;
19260;SDS011;9764;48.114;11.670;2023-06-22T07:11:07;7.63;;;4.57;;
19260;SDS011;9764;48.114;11.670;2023-06-22T07:13:35;9.73;;;4.97;;
19260;SDS011;9764;48.114;11.670;2023-06-22T07:16:04;9.32;;;4.55;;
19260;SDS011;9764;48.114;11.670;2023-06-22T07:18:34;12.18;;;4.45;;
19260;SDS011;9764;48.114;11.670;2023-06-22T07:21:03;6.07;;;4.40;;
19260;SDS011;9764;48.114;11.670;2023-06-22T07:23:33;15.00;;;5.13;;
19260;SDS011;9764;48.114;11.670;2023-06-22T07:26:01;6.00;;;4.40;;
19260;SDS011;9764;48.114;11.670;2023-06-22T07:28:29;7.75;;;4.05;;
19260;SDS011;9764;48.114;11.670;2023-06-22T07:31:03;7.85;;;4.63;;
19260;SDS011;9764;48.114;11.670;2023-06-22T07:33:31;8.32;;;4.00;;
19260;SDS011;9764;48.114;11.670;2023-06-22T07:36:01;6.07;;;4.18;;
19260;SDS011;9764;48.114;11.670;2023-06-22T07:38:34;12.05;;;4.82;;
19260;SDS011;9764;48.114;11.670;2023-06-22T07:41:02;7.22;;;4.22;;
19260;SDS011;9764;48.114;11.670;2023-06-22T07:43:32;5.32;;;4.03;;
19260;SDS011;9764;48.114;11.670;2023-06-22T07:46:01;7.47;;;4.85;;
19260;SDS011;9764;48.114;11.670;2023-06-22T07:48:29;7.70;;;4.90;;
19260;SDS011;9764;48.114;11.670;2023-06-22T07:50:57;8.63;;;4.90;;
19260;SDS011;9764;48.114;11.670;2023-06-22T07:53:28;7.70;;;4.97;;
19260;SDS011;9764;48.114;11.670;2023-06-22T07:55:56;6.82;;;4.72;;
19260;SDS011;9764;48.114;11.670;2023-06-22T07:58:24;7.82;;;5.03;;
19260;SDS011;9764;48.114;11.670;2023-06-22T08:00:53;8.70;;;4.88;;
19260;SDS011;9764;48.114;11.670;2023-06-22T08:03:21;10.82;;;5.20;;
19260;SDS011;9764;48.114;11.670;2023-06-22T08:05:49;6.50;;;5.00;;
19260;SDS011;9764;48.114;11.670;2023-06-22T08:08:18;7.65;;;4.90;;
19260;SDS011;9764;48.114;11.670;2023-06-22T08:10:47;6.00;;;4.60;;
19260;SDS011;9764;48.114;11.670;2023-06-22T08:13:16;7.43;;;5.05;;
19260;SDS011;9764;48.114;11.670;2023-06-22T08:15:44;7.82;;;4.85;;
19260;SDS011;9764;48.114;11.670;2023-06-22T08:18:15;9.00;;;4.93;;
19260;SDS011;9764;48.114;11.670;2023-06-22T08:20:44;10.10;;;4.55;;
19260;SDS011;9764;48.114;11.670;2023-06-22T08:23:12;9.75;;;5.25;;
19260;SDS011;9764;48.114;11.670;2023-06-22T08:25:40;7.60;;;4.72;;
19260;SDS011;9764;48.114;11.670;2023-06-22T08:28:10;5.60;;;4.63;;
19260;SDS011;9764;48.114;11.670;2023-06-22T08:30:39;8.07;;;5.13;;
19260;SDS011;9764;48.114;11.670;2023-06-22T08:33:08;7.35;;;5.00;;
19260;SDS011;9764;48.114;11.670;2023-06-22T08:35:41;7.63;;;4.88;;
19260;SDS011;9764;48.114;11.670;2023-06-22T08:38:10;7.50;;;4.80;;
19260;SDS011;9764;48.114;11.670;2023-06-22T08:40:40;14.80;;;5.60;;
19260;SDS011;9764;48.114;11.670;2023-06-22T08:43:10;8.43;;;5.07;;
19260;SDS011;9764;48.114;11.670;2023-06-22T08:45:38;8.80;;;5.07;;
19260;SDS011;9764;48.114;11.670;2023-06-22T08:48:07;10.80;;;5.00;;
19260;SDS011;9764;48.114;11.670;2023-06-22T08:50:36;7.38;;;5.00;;
19260;SDS011;9764;48.114;11.670;2023-06-22T08:53:07;9.15;;;5.18;;
19260;SDS011;9764;48.114;11.670;2023-06-22T08:55:35;10.60;;;5.05;;
19260;SDS011;9764;48.114;11.670;2023-06-22T08:58:04;8.43;;;5.32;;
19260;SDS011;9764;48.114;11.670;2023-06-22T09:00:34;9.63;;;4.90;;
19260;SDS011;9764;48.114;11.670;2023-06-22T09:03:02;7.32;;;5.00;;
19260;SDS011;9764;48.114;11.670;2023-06-22T09:05:31;8.27;;;5.00;;
19260;SDS011;9764;48.114;11.670;2023-06-22T09:08:00;9.05;;;5.18;;
19260;SDS011;9764;48.114;11.670;2023-06-22T09:10:28;8.82;;;5.40;;
19260;SDS011;9764;48.114;11.670;2023-06-22T09:12:57;8.63;;;4.90;;
19260;SDS011;9764;48.114;11.670;2023-06-22T09:15:26;8.60;;;5.18;;
19260;SDS011;9764;48.114;11.670;2023-06-22T09:17:56;9.23;;;5.00;;
19260;SDS011;9764;48.114;11.670;2023-06-22T09:20:24;8.70;;;5.20;;
19260;SDS011;9764;48.114;11.670;2023-06-22T09:22:53;10.18;;;5.57;;
19260;SDS011;9764;48.114;11.670;2023-06-22T09:25:22;7.70;;;4.72;;
19260;SDS011;9764;48.114;11.670;2023-06-22T09:27:50;9.32;;;5.07;;
19260;SDS011;9764;48.114;11.670;2023-06-22T09:30:19;7.80;;;5.05;;
19260;SDS011;9764;48.114;11.670;2023-06-22T09:32:47;8.95;;;5.30;;
19260;SDS011;9764;48.114;11.670;2023-06-22T09:35:17;11.10;;;5.80;;
19260;SDS011;9764;48.114;11.670;2023-06-22T09:37:46;8.70;;;5.57;;
19260;SDS011;9764;48.114;11.670;2023-06-22T09:40:14;9.38;;;5.72;;
19260;SDS011;9764;48.114;11.670;2023-06-22T09:42:43;8.07;;;5.57;;
19260;SDS011;9764;48.114;11.670;2023-06-22T09:45:12;9.25;;;5.20;;
19260;SDS011;9764;48.114;11.670;2023-06-22T09:47:41;9.35;;;5.80;;
19260;SDS011;9764;48.114;11.670;2023-06-22T09:50:09;7.80;;;5.25;;
19260;SDS011;9764;48.114;11.670;2023-06-22T09:52:39;5.88;;;4.53;;
19260;SDS011;9764;48.114;11.670;2023-06-22T09:55:14;9.18;;;5.03;;
19260;SDS011;9764;48.114;11.670;2023-06-22T09:57:43;8.32;;;4.72;;
19260;SDS011;9764;48.114;11.670;2023-06-22T10:00:12;8.20;;;5.43;;
19260;SDS011;9764;48.114;11.670;2023-06-22T10:02:41;7.15;;;5.07;;
19260;SDS011;9764;48.114;11.670;2023-06-22T10:05:11;9.15;;;5.35;;
19260;SDS011;9764;48.114;11.670;2023-06-22T10:07:41;8.65;;;5.18;;
19260;SDS011;9764;48.114;11.670;2023-06-22T10:10:11;6.57;;;4.70;;
19260;SDS011;9764;48.114;11.670;2023-06-22T10:12:45;7.05;;;5.32;;
19260;SDS011;9764;48.114;11.670;2023-06-22T10:15:13;8.57;;;5.65;;
19260;SDS011;9764;48.114;11.670;2023-06-22T10:17:43;9.10;;;5.72;;
19260;SDS011;9764;48.114;11.670;2023-06-22T10:20:11;7.78;;;5.40;;
19260;SDS011;9764;48.114;11.670;2023-06-22T10:22:42;8.23;;;5.78;;
19260;SDS011;9764;48.114;11.670;2023-06-22T10:25:12;8.30;;;5.70;;
19260;SDS011;9764;48.114;11.670;2023-06-22T10:27:40;6.57;;;5.35;;
19260;SDS011;9764;48.114;11.670;2023-06-22T10:30:10;9.80;;;5.60;;
19260;SDS011;9764;48.114;11.670;2023-06-22T10:32:40;8.75;;;5.32;;
19260;SDS011;9764;48.114;11.670;2023-06-22T10:35:09;9.55;;;5.82;;
19260;SDS011;9764;48.114;11.670;2023-06-22T10:37:42;10.70;;;5.60;;
19260;SDS011;9764;48.114;11.670;2023-06-22T10:40:12;9.00;;;5.93;;
19260;SDS011;9764;48.114;11.670;2023-06-22T10:42:43;8.57;;;5.78;;
19260;SDS011;9764;48.114;11.670;2023-06-22T10:45:11;9.07;;;5.53;;
19260;SDS011;9764;48.114;11.670;2023-06-22T10:47:40;6.82;;;5.15;;
19260;SDS011;9764;48.114;11.670;2023-06-22T10:50:09;8.95;;;5.22;;
19260;SDS011;9764;48.114;11.670;2023-06-22T10:52:40;7.72;;;5.60;;
19260;SDS011;9764;48.114;11.670;2023-06-22T10:55:10;8.93;;;5.30;;
19260;SDS011;9764;48.114;11.670;2023-06-22T10:57:39;8.25;;;5.65;;
19260;SDS011;9764;48.114;11.670;2023-06-22T11:00:10;9.13;;;5.25;;
19260;SDS011;9764;48.114;11.670;2023-06-22T11:02:42;8.52;;;5.43;;
19260;SDS011;9764;48.114;11.670;2023-06-22T11:05:12;9.05;;;5.72;;
19260;SDS011;9764;48.114;11.670;2023-06-22T11:07:42;6.45;;;5.00;;
19260;SDS011;9764;48.114;11.670;2023-06-22T11:10:12;8.93;;;5.07;;
19260;SDS011;9764;48.114;11.670;2023-06-22T11:12:41;8.15;;;5.35;;
19260;SDS011;9764;48.114;11.670;2023-06-22T11:15:10;9.20;;;5.07;;
19260;SDS011;9764;48.114;11.670;2023-06-22T11:17:38;9.07;;;5.65;;
19260;SDS011;9764;48.114;11.670;2023-06-22T11:20:07;18.30;;;6.40;;
19260;SDS011;9764;48.114;11.670;2023-06-22T11:22:38;11.18;;;5.70;;
19260;SDS011;9764;48.114;11.670;2023-06-22T11:25:08;11.00;;;5.93;;
19260;SDS011;9764;48.114;11.670;2023-06-22T11:27:38;11.27;;;5.78;;
19260;SDS011;9764;48.114;11.670;2023-06-22T11:30:07;11.88;;;5.15;;
19260;SDS011;9764;48.114;11.670;2023-06-22T11:32:36;14.65;;;5.43;;
19260;SDS011;9764;48.114;11.670;2023-06-22T11:35:05;11.55;;;5.50;;
19260;SDS011;9764;48.114;11.670;2023-06-22T11:37:33;8.25;;;5.47;;
19260;SDS011;9764;48.114;11.670;2023-06-22T11:40:02;10.93;;;5.88;;
19260;SDS011;9764;48.114;11.670;2023-06-22T11:42:36;10.73;;;5.70;;
19260;SDS011;9764;48.114;11.670;2023-06-22T11:45:05;10.23;;;5.50;;
19260;SDS011;9764;48.114;11.670;2023-06-22T11:47:34;9.10;;;5.60;;
19260;SDS011;9764;48.114;11.670;2023-06-22T11:50:03;11.85;;;5.25;;
19260;SDS011;9764;48.114;11.670;2023-06-22T11:52:33;11.60;;;6.05;;
19260;SDS011;9764;48.114;11.670;2023-06-22T11:55:02;10.55;;;5.72;;
19260;SDS011;9764;48.114;11.670;2023-06-22T11:57:32;8.18;;;5.38;;
19260;SDS011;9764;48.114;11.670;2023-06-22T12:00:03;9.25;;;5.97;;
19260;SDS011;9764;48.114;11.670;2023-06-22T12:02:42;8.50;;;4.78;;
19260;SDS011;9764;48.114;11.670;2023-06-22T12:05:11;9.57;;;5.57;;
19260;SDS011;9764;48.114;11.670;2023-06-22T12:07:40;8.27;;;5.35;;
19260;SDS011;9764;48.114;11.670;2023-06-22T12:10:09;10.68;;;5.40;;
19260;SDS011;9764;48.114;11.670;2023-06-22T12:12:38;7.75;;;5.43;;
19260;SDS011;9764;48.114;11.670;2023-06-22T12:15:08;8.80;;;5.28;;
19260;SDS011;9764;48.114;11.670;2023-06-22T12:17:37;10.18;;;5.50;;
19260;SDS011;9764;48.114;11.670;2023-06-22T12:20:06;8.23;;;5.65;;
19260;SDS011;9764;48.114;11.670;2023-06-22T12:22:35;9.70;;;5.97;;
19260;SDS011;9764;48.114;11.670;2023-06-22T12:25:05;8.38;;;5.55;;
19260;SDS011;9764;48.114;11.670;2023-06-22T12:27:34;11.05;;;5.68;;
19260;SDS011;9764;48.114;11.670;2023-06-22T12:31:01;8.32;;;5.50;;
19260;SDS011;9764;48.114;11.670;2023-06-22T12:33:30;9.13;;;4.53;;
19260;SDS011;9764;48.114;11.670;2023-06-22T12:35:58;10.98;;;5.57;;
19260;SDS011;9764;48.114;11.670;2023-06-22T12:38:26;8.25;;;5.13;;
19260;SDS011;9764;48.114;11.670;2023-06-22T12:40:54;11.00;;;5.90;;
19260;SDS011;9764;48.114;11.670;2023-06-22T12:43:23;7.85;;;5.53;;
19260;SDS011;9764;48.114;11.670;2023-06-22T12:45:51;7.80;;;5.25;;
19260;SDS011;9764;48.114;11.670;2023-06-22T12:48:22;9.10;;;5.72;;
19260;SDS011;9764;48.114;11.670;2023-06-22T12:50:51;7.97;;;5.32;;
19260;SDS011;9764;48.114;11.670;2023-06-22T12:53:21;11.88;;;5.60;;
19260;SDS011;9764;48.114;11.670;2023-06-22T12:55:50;7.80;;;5.50;;
19260;SDS011;9764;48.114;11.670;2023-06-22T12:58:18;10.20;;;5.38;;
19260;SDS011;9764;48.114;11.670;2023-06-22T13:00:46;10.55;;;5.65;;
19260;SDS011;9764;48.114;11.670;2023-06-22T13:03:16;11.52;;;5.55;;
19260;SDS011;9764;48.114;11.670;2023-06-22T13:05:45;8.60;;;5.50;;
19260;SDS011;9764;48.114;11.670;2023-06-22T13:08:13;8.00;;;5.50;;
19260;SDS011;9764;48.114;11.670;2023-06-22T13:10:42;8.10;;;5.20;;
19260;SDS011;9764;48.114;11.670;2023-06-22T13:13:10;10.23;;;5.38;;
19260;SDS011;9764;48.114;11.670;2023-06-22T13:15:38;8.60;;;5.15;;
19260;SDS011;9764;48.114;11.670;2023-06-22T13:18:07;9.10;;;4.60;;
19260;SDS011;9764;48.114;11.670;2023-06-22T13:20:35;7.93;;;5.60;;
19260;SDS011;9764;48.114;11.670;2023-06-22T13:23:04;11.73;;;5.07;;
19260;SDS011;9764;48.114;11.670;2023-06-22T13:25:32;9.80;;;5.78;;
19260;SDS011;9764;48.114;11.670;2023-06-22T13:28:01;7.60;;;5.78;;
19260;SDS011;9764;48.114;11.670;2023-06-22T13:30:33;9.65;;;5.28;;
19260;SDS011;9764;48.114;11.670;2023-06-22T13:33:01;11.13;;;5.53;;
19260;SDS011;9764;48.114;11.670;2023-06-22T13:35:29;8.10;;;5.53;;
19260;SDS011;9764;48.114;11.670;2023-06-22T13:37:58;8.35;;;5.45;;
19260;SDS011;9764;48.114;11.670;2023-06-22T13:40:45;11.90;;;5.65;;
19260;SDS011;9764;48.114;11.670;2023-06-22T13:43:31;10.50;;;5.40;;
19260;SDS011;9764;48.114;11.670;2023-06-22T13:46:00;9.93;;;5.50;;
19260;SDS011;9764;48.114;11.670;2023-06-22T13:48:45;10.18;;;5.20;;
19260;SDS011;9764;48.114;11.670;2023-06-22T13:51:31;10.93;;;5.30;;
19260;SDS011;9764;48.114;11.670;2023-06-22T13:53:59;9.75;;;5.15;;
19260;SDS011;9764;48.114;11.670;2023-06-22T13:56:29;6.88;;;5.03;;
19260;SDS011;9764;48.114;11.670;2023-06-22T13:58:59;8.77;;;5.10;;
19260;SDS011;9764;48.114;11.670;2023-06-22T14:01:28;8.45;;;5.28;;
19260;SDS011;9764;48.114;11.670;2023-06-22T14:03:56;12.65;;;5.63;;
19260;SDS011;9764;48.114;11.670;2023-06-22T14:06:24;11.65;;;5.60;;
19260;SDS011;9764;48.114;11.670;2023-06-22T14:08:52;8.80;;;5.50;;
19260;SDS011;9764;48.114;11.670;2023-06-22T14:11:21;7.45;;;5.22;;
19260;SDS011;9764;48.114;11.670;2023-06-22T14:13:50;14.02;;;5.93;;
19260;SDS011;9764;48.114;11.670;2023-06-22T14:16:19;10.35;;;5.40;;
19260;SDS011;9764;48.114;11.670;2023-06-22T14:18:47;8.82;;;4.90;;
19260;SDS011;9764;48.114;11.670;2023-06-22T14:21:15;9.57;;;5.95;;
19260;SDS011;9764;48.114;11.670;2023-06-22T14:23:45;9.40;;;5.55;;
19260;SDS011;9764;48.114;11.670;2023-06-22T14:26:16;10.15;;;5.05;;
19260;SDS011;9764;48.114;11.670;2023-06-22T14:28:45;10.38;;;5.28;;
19260;SDS011;9764;48.114;11.670;2023-06-22T14:31:17;10.82;;;5.70;;
19260;SDS011;9764;48.114;11.670;2023-06-22T14:33:46;8.80;;;5.45;;
19260;SDS011;9764;48.114;11.670;2023-06-22T14:36:16;12.57;;;6.35;;
19260;SDS011;9764;48.114;11.670;2023-06-22T14:38:45;11.38;;;5.32;;
19260;SDS011;9764;48.114;11.670;2023-06-22T14:41:13;9.45;;;5.47;;
19260;SDS011;9764;48.114;11.670;2023-06-22T14:43:44;8.70;;;5.30;;
19260;SDS011;9764;48.114;11.670;2023-06-22T14:46:14;8.57;;;5.43;;
19260;SDS011;9764;48.114;11.670;2023-06-22T14:48:43;9.70;;;5.70;;
19260;SDS011;9764;48.114;11.670;2023-06-22T14:51:12;9.15;;;5.75;;
19260;SDS011;9764;48.114;11.670;2023-06-22T14:53:43;9.13;;;5.05;;
19260;SDS011;9764;48.114;11.670;2023-06-22T14:56:13;7.68;;;5.50;;
19260;SDS011;9764;48.114;11.670;2023-06-22T14:58:43;7.28;;;5.45;;
19260;SDS011;9764;48.114;11.670;2023-06-22T15:01:13;7.53;;;5.53;;